createdAt,value
2023-01-13T00:00:12.675Z,100168.34
2023-01-13T00:02:14.201Z,100146.56
2023-01-13T00:04:15.636Z,100145.94
2023-01-13T00:06:22.596Z,100137.22
2023-01-13T00:08:24.013Z,100140.78
2023-01-13T00:10:25.463Z,100143.44
2023-01-13T00:12:26.948Z,100129.44
2023-01-13T00:14:30.112Z,100127.69
2023-01-13T00:16:31.585Z,100129.59
2023-01-13T00:18:34.340Z,100142.81
2023-01-13T00:20:35.791Z,100138.44
2023-01-13T00:22:37.211Z,100137.66
2023-01-13T00:24:38.637Z,100130.59
2023-01-13T00:26:40.200Z,100134.16
2023-01-13T00:28:41.800Z,100141.13
2023-01-13T00:30:43.225Z,100142.06
2023-01-13T00:32:44.921Z,100146.41
2023-01-13T00:34:46.408Z,100145.50
2023-01-13T00:36:47.839Z,100130.50
2023-01-13T00:38:49.417Z,100135.72
2023-01-13T00:41:01.080Z,100142.69
2023-01-13T00:43:20.857Z,100147.97
2023-01-13T00:45:22.292Z,100144.41
2023-01-13T00:47:23.711Z,100144.47
2023-01-13T00:49:25.348Z,100139.16
2023-01-13T00:51:27.539Z,100146.19
2023-01-13T00:53:30.384Z,100154.16
2023-01-13T00:55:32.935Z,100148.06
2023-01-13T00:57:34.627Z,100160.22
2023-01-13T00:59:36.052Z,100152.31
2023-01-13T01:01:38.117Z,100157.66
2023-01-13T01:03:40.287Z,100156.78
2023-01-13T01:05:41.715Z,100146.34
2023-01-13T01:07:43.123Z,100163.13
2023-01-13T01:09:44.539Z,100168.41
2023-01-13T01:11:46.029Z,100180.69
2023-01-13T01:13:48.919Z,100175.53
2023-01-13T01:15:50.394Z,100178.28
2023-01-13T01:17:51.836Z,100168.66
2023-01-13T01:19:53.317Z,100176.59
2023-01-13T01:21:54.978Z,100181.00
2023-01-13T01:24:00.128Z,100176.66
2023-01-13T01:26:07.094Z,100182.97
2023-01-13T01:28:08.556Z,100186.53
2023-01-13T01:30:10.820Z,100183.09
2023-01-13T01:32:12.255Z,100188.38
2023-01-13T01:34:13.987Z,100180.56
2023-01-13T01:36:18.471Z,100182.38
2023-01-13T01:38:21.262Z,100185.88
2023-01-13T01:40:22.716Z,100191.19
2023-01-13T01:42:42.606Z,100179.84
2023-01-13T01:44:56.389Z,100176.31
2023-01-13T01:46:57.950Z,100176.41
2023-01-13T01:49:08.996Z,100173.97
2023-01-13T01:51:13.552Z,100174.28
2023-01-13T01:53:19.427Z,100167.38
2023-01-13T01:55:26.079Z,100167.47
2023-01-13T01:57:42.557Z,100165.00
2023-01-13T01:59:44.677Z,100171.13
2023-01-13T02:01:46.366Z,100162.31
2023-01-13T02:03:57.631Z,100171.03
2023-01-13T02:05:59.163Z,100161.41
2023-01-13T02:08:01.396Z,100169.34
2023-01-13T02:10:07.865Z,100176.50
2023-01-13T02:12:28.810Z,100168.78
2023-01-13T02:14:31.712Z,100180.47
2023-01-13T02:16:33.765Z,100177.03
2023-01-13T02:18:50.082Z,100184.97
2023-01-13T02:21:28.492Z,100186.88
2023-01-13T02:23:57.578Z,100193.09
2023-01-13T02:26:07.673Z,100187.88
2023-01-13T02:28:33.790Z,100193.09
2023-01-13T02:31:02.955Z,100197.53
2023-01-13T02:33:48.259Z,100194.13
2023-01-13T02:36:02.590Z,100183.81
2023-01-13T02:38:05.337Z,100188.25
2023-01-13T02:40:17.282Z,100188.38
2023-01-13T02:42:51.738Z,100201.53
2023-01-13T02:45:23.176Z,100205.88
2023-01-13T02:47:30.628Z,100201.59
2023-01-13T02:49:44.281Z,100208.59
2023-01-13T02:51:48.156Z,100210.41
2023-01-13T02:54:01.416Z,100205.22
2023-01-13T02:56:06.091Z,100205.97
2023-01-13T02:58:11.103Z,100212.00
2023-01-13T03:00:14.593Z,100210.31
2023-01-13T03:02:20.441Z,100211.19
2023-01-13T03:04:53.177Z,100192.78
2023-01-13T03:07:05.683Z,100186.66
2023-01-13T03:09:15.474Z,100187.47
2023-01-13T03:11:19.823Z,100193.66
2023-01-13T03:13:40.326Z,100196.31
2023-01-13T03:16:19.395Z,100204.06
2023-01-13T03:18:23.633Z,100206.66
2023-01-13T03:20:29.132Z,100205.84
2023-01-13T03:22:55.343Z,100198.91
2023-01-13T03:25:05.327Z,100197.22
2023-01-13T03:27:10.860Z,100185.97
2023-01-13T03:29:21.999Z,100192.19
2023-01-13T03:31:30.360Z,100181.72
2023-01-13T03:33:37.396Z,100179.09
2023-01-13T03:35:43.844Z,100175.50
2023-01-13T03:37:55.462Z,100181.63
2023-01-13T03:40:14.888Z,100171.88
2023-01-13T03:42:25.695Z,100173.75
2023-01-13T03:44:33.867Z,100169.44
2023-01-13T03:46:44.095Z,100168.75
2023-01-13T03:48:46.999Z,100174.97
2023-01-13T03:50:52.007Z,100171.44
2023-01-13T03:52:58.162Z,100174.19
2023-01-13T03:55:06.562Z,100174.28
2023-01-13T03:57:12.139Z,100184.00
2023-01-13T03:59:19.011Z,100179.66
2023-01-13T04:01:29.220Z,100188.50
2023-01-13T04:03:49.847Z,100181.47
2023-01-13T04:05:58.184Z,100184.94
2023-01-13T04:08:19.130Z,100190.16
2023-01-13T04:10:29.899Z,100184.00
2023-01-13T04:13:00.906Z,100191.91
2023-01-13T04:15:02.516Z,100194.53
2023-01-13T04:17:05.325Z,100196.19
2023-01-13T04:19:06.824Z,100181.34
2023-01-13T04:21:09.050Z,100190.16
2023-01-13T04:23:11.365Z,100195.59
2023-01-13T04:25:12.816Z,100197.38
2023-01-13T04:27:14.295Z,100196.38
2023-01-13T04:29:16.033Z,100191.03
2023-01-13T04:31:17.973Z,100184.09
2023-01-13T04:33:19.703Z,100173.59
2023-01-13T04:35:21.167Z,100176.22
2023-01-13T04:37:22.638Z,100168.31
2023-01-13T04:39:24.111Z,100167.38
2023-01-13T04:41:25.572Z,100160.34
2023-01-13T04:43:27.044Z,100162.03
2023-01-13T04:45:28.517Z,100163.72
2023-01-13T04:47:29.958Z,100167.25
2023-01-13T04:49:31.665Z,100155.84
2023-01-13T04:51:33.147Z,100157.56
2023-01-13T04:53:34.665Z,100148.84
2023-01-13T04:55:36.160Z,100147.16
2023-01-13T04:57:37.785Z,100136.78
2023-01-13T04:59:41.115Z,100131.63
2023-01-13T05:01:42.680Z,100138.59
2023-01-13T05:03:44.215Z,100150.03
2023-01-13T05:05:45.735Z,100130.81
2023-01-13T05:07:47.232Z,100147.63
2023-01-13T05:09:48.773Z,100145.00
2023-01-13T05:12:08.497Z,100149.38
2023-01-13T05:14:28.257Z,100144.00
2023-01-13T05:16:50.088Z,100136.88
2023-01-13T05:18:51.559Z,100129.81
2023-01-13T05:20:53.001Z,100128.09
2023-01-13T05:23:13.119Z,100132.53
2023-01-13T05:25:27.994Z,100134.34
2023-01-13T05:27:30.262Z,100138.81
2023-01-13T05:29:31.729Z,100141.38
2023-01-13T05:31:33.220Z,100137.78
2023-01-13T05:33:36.048Z,100140.47
2023-01-13T05:35:39.164Z,100135.28
2023-01-13T05:37:40.654Z,100129.06
2023-01-13T05:40:01.491Z,100131.69
2023-01-13T05:42:21.567Z,100135.16
2023-01-13T05:44:23.009Z,100130.69
2023-01-13T05:46:24.490Z,100128.94
2023-01-13T05:48:27.780Z,100130.69
2023-01-13T05:50:29.222Z,100127.13
2023-01-13T05:52:30.945Z,100131.41
2023-01-13T05:54:37.040Z,100121.75
2023-01-13T05:56:38.613Z,100125.25
2023-01-13T05:58:40.278Z,100123.47
2023-01-13T06:00:43.010Z,100122.53
2023-01-13T06:02:44.569Z,100121.63
2023-01-13T06:04:46.106Z,100115.50
2023-01-13T06:06:48.825Z,100121.66
2023-01-13T06:08:50.370Z,100115.50
2023-01-13T06:10:54.938Z,100124.19
2023-01-13T06:12:56.622Z,100119.66
2023-01-13T06:14:58.189Z,100125.75
2023-01-13T06:17:00.025Z,100126.59
2023-01-13T06:19:01.594Z,100129.19
2023-01-13T06:21:03.276Z,100136.16
2023-01-13T06:23:08.635Z,100125.59
2023-01-13T06:25:36.569Z,100132.63
2023-01-13T06:27:38.409Z,100127.38
2023-01-13T06:29:40.118Z,100121.22
2023-01-13T06:31:41.660Z,100122.13
2023-01-13T06:33:48.372Z,100123.94
2023-01-13T06:35:55.991Z,100122.22
2023-01-13T06:37:59.657Z,100117.81
2023-01-13T06:40:04.079Z,100113.41
2023-01-13T06:42:24.380Z,100115.13
2023-01-13T06:44:25.856Z,100116.91
2023-01-13T06:46:27.365Z,100124.75
2023-01-13T06:48:35.465Z,100130.91
2023-01-13T06:50:37.165Z,100128.28
2023-01-13T06:52:38.650Z,100123.94
2023-01-13T06:54:40.182Z,100129.13
2023-01-13T06:56:41.655Z,100140.47
2023-01-13T06:58:43.141Z,100132.63
2023-01-13T07:00:44.950Z,100129.28
2023-01-13T07:02:46.587Z,100133.00
2023-01-13T07:04:48.801Z,100139.19
2023-01-13T07:06:50.256Z,100140.97
2023-01-13T07:08:51.763Z,100140.16
2023-01-13T07:10:54.180Z,100143.69
2023-01-13T07:13:13.983Z,100142.78
2023-01-13T07:15:21.085Z,100141.91
2023-01-13T07:17:25.353Z,100141.97
2023-01-13T07:19:27.015Z,100141.13
2023-01-13T07:21:28.514Z,100147.34
2023-01-13T07:23:32.165Z,100149.16
2023-01-13T07:25:33.633Z,100149.16
2023-01-13T07:27:35.284Z,100152.78
2023-01-13T07:29:37.547Z,100138.81
2023-01-13T07:31:39.874Z,100148.59
2023-01-13T07:33:41.371Z,100144.22
2023-01-13T07:35:42.840Z,100137.19
2023-01-13T07:37:44.358Z,100151.16
2023-01-13T07:39:46.407Z,100150.31
2023-01-13T07:42:06.331Z,100146.06
2023-01-13T07:44:10.699Z,100142.69
2023-01-13T07:46:12.221Z,100157.50
2023-01-13T07:48:13.770Z,100161.81
2023-01-13T07:50:15.250Z,100160.09
2023-01-13T07:52:16.715Z,100151.34
2023-01-13T07:54:19.316Z,100147.00
2023-01-13T07:56:20.997Z,100154.84
2023-01-13T07:58:22.694Z,100158.34
2023-01-13T08:00:24.344Z,100151.22
2023-01-13T08:02:25.941Z,100152.09
2023-01-13T08:04:27.547Z,100145.94
2023-01-13T08:06:29.084Z,100160.88
2023-01-13T08:08:30.677Z,100155.66
2023-01-13T08:10:32.195Z,100154.81
2023-01-13T08:12:56.957Z,100162.59
2023-01-13T08:14:58.607Z,100161.69
2023-01-13T08:17:00.097Z,100163.47
2023-01-13T08:19:01.606Z,100151.16
2023-01-13T08:21:06.329Z,100164.25
2023-01-13T08:23:07.886Z,100152.69
2023-01-13T08:25:09.712Z,100159.66
2023-01-13T08:27:11.165Z,100164.03
2023-01-13T08:29:14.892Z,100169.28
2023-01-13T08:31:17.271Z,100168.31
2023-01-13T08:33:18.881Z,100177.97
2023-01-13T08:35:21.317Z,100182.38
2023-01-13T08:37:23.116Z,100177.97
2023-01-13T08:39:25.543Z,100173.41
2023-01-13T08:41:45.636Z,100167.28
2023-01-13T08:43:47.092Z,100176.97
2023-01-13T08:46:00.115Z,100166.38
2023-01-13T08:48:02.213Z,100177.69
2023-01-13T08:50:04.456Z,100156.56
2023-01-13T08:52:05.989Z,100160.81
2023-01-13T08:54:07.475Z,100158.97
2023-01-13T08:56:11.736Z,100162.41
2023-01-13T08:58:16.468Z,100168.44
2023-01-13T09:00:18.479Z,100166.66
2023-01-13T09:02:22.502Z,100162.28
2023-01-13T09:04:27.803Z,100159.66
2023-01-13T09:06:29.307Z,100175.38
2023-01-13T09:08:30.841Z,100162.19
2023-01-13T09:10:32.490Z,100165.59
2023-01-13T09:12:52.789Z,100166.44
2023-01-13T09:14:54.234Z,100172.56
2023-01-13T09:16:56.263Z,100160.25
2023-01-13T09:18:57.698Z,100176.00
2023-01-13T09:20:59.255Z,100175.09
2023-01-13T09:23:00.942Z,100178.59
2023-01-13T09:25:02.413Z,100157.56
2023-01-13T09:27:03.896Z,100166.34
2023-01-13T09:29:05.839Z,100164.59
2023-01-13T09:31:07.370Z,100155.78
2023-01-13T09:33:27.230Z,100164.56
2023-01-13T09:35:28.695Z,100163.66
2023-01-13T09:37:31.477Z,100161.03
2023-01-13T09:39:34.008Z,100171.50
2023-01-13T09:42:00.128Z,100174.09
2023-01-13T09:44:02.890Z,100175.91
2023-01-13T09:46:47.398Z,100174.13
2023-01-13T09:48:54.643Z,100174.09
2023-01-13T09:51:24.425Z,100170.56
2023-01-13T09:53:30.448Z,100175.78
2023-01-13T09:55:38.984Z,100176.59
2023-01-13T09:57:40.883Z,100167.69
2023-01-13T09:59:43.298Z,100178.16
2023-01-13T10:02:02.955Z,100177.31
2023-01-13T10:04:12.728Z,100165.06
2023-01-13T10:06:17.241Z,100169.41
2023-01-13T10:08:32.648Z,100165.88
2023-01-13T10:10:41.777Z,100175.38
2023-01-13T10:13:03.959Z,100171.00
2023-01-13T10:15:06.295Z,100165.72
2023-01-13T10:17:26.310Z,100158.69
2023-01-13T10:19:44.400Z,100179.69
2023-01-13T10:22:01.752Z,100184.09
2023-01-13T10:24:12.280Z,100191.22
2023-01-13T10:26:39.604Z,100212.44
2023-01-13T10:28:41.065Z,100211.00
2023-01-13T10:30:45.802Z,100213.13
2023-01-13T10:33:27.678Z,100227.63
2023-01-13T10:35:59.372Z,100232.44
2023-01-13T10:38:00.825Z,100232.75
2023-01-13T10:40:03.212Z,100238.44
2023-01-13T10:42:06.797Z,100233.38
2023-01-13T10:44:18.861Z,100230.84
2023-01-13T10:46:20.664Z,100236.97
2023-01-13T10:48:22.236Z,100238.69
2023-01-13T10:50:28.490Z,100235.00
2023-01-13T10:52:33.207Z,100224.28
2023-01-13T10:54:36.531Z,100224.22
2023-01-13T10:56:39.812Z,100218.84
2023-01-13T10:58:41.323Z,100224.88
2023-01-13T11:00:42.895Z,100220.41
2023-01-13T11:02:44.380Z,100220.16
2023-01-13T11:05:02.927Z,100215.63
2023-01-13T11:07:16.377Z,100214.63
2023-01-13T11:09:22.632Z,100225.16
2023-01-13T11:11:47.387Z,100205.81
2023-01-13T11:14:12.102Z,100212.75
2023-01-13T11:16:16.616Z,100207.41
2023-01-13T11:18:36.879Z,100213.41
2023-01-13T11:20:42.600Z,100213.31
2023-01-13T11:22:55.639Z,100208.00
2023-01-13T11:25:02.779Z,100222.00
2023-01-13T11:27:10.021Z,100224.59
2023-01-13T11:29:18.341Z,100211.50
2023-01-13T11:31:30.151Z,100214.09
2023-01-13T11:33:56.919Z,100208.75
2023-01-13T11:36:08.588Z,100206.06
2023-01-13T11:38:28.921Z,100211.19
2023-01-13T11:40:41.500Z,100225.13
2023-01-13T11:42:54.153Z,100214.59
2023-01-13T11:45:21.917Z,100219.81
2023-01-13T11:47:25.942Z,100206.72
2023-01-13T11:49:30.805Z,100212.88
2023-01-13T11:51:51.034Z,100211.06
2023-01-13T11:54:10.823Z,100207.53
2023-01-13T11:56:30.996Z,100213.66
2023-01-13T11:58:50.952Z,100208.38
2023-01-13T12:01:11.239Z,100225.91
2023-01-13T12:03:24.875Z,100218.88
2023-01-13T12:05:39.569Z,100232.03
2023-01-13T12:07:40.989Z,100228.56
2023-01-13T12:09:44.519Z,100244.31
2023-01-13T12:12:15.519Z,100234.72
2023-01-13T12:14:36.434Z,100227.00
2023-01-13T12:16:49.003Z,100227.13
2023-01-13T12:19:08.973Z,100232.50
2023-01-13T12:21:20.795Z,100235.16
2023-01-13T12:23:57.483Z,100230.75
2023-01-13T12:26:06.257Z,100228.13
2023-01-13T12:28:13.622Z,100243.88
2023-01-13T12:30:27.072Z,100247.31
2023-01-13T12:32:36.444Z,100239.44
2023-01-13T12:34:57.517Z,100246.44
2023-01-13T12:37:14.144Z,100242.91
2023-01-13T12:39:30.093Z,100246.38
2023-01-13T12:43:04.224Z,100241.97
2023-01-13T12:45:11.310Z,100234.16
2023-01-13T12:47:33.872Z,100237.69
2023-01-13T12:49:36.257Z,100246.41
2023-01-13T12:51:57.669Z,100249.91
2023-01-13T12:54:01.431Z,100250.72
2023-01-13T12:56:34.881Z,100244.50
2023-01-13T12:58:37.885Z,100237.47
2023-01-13T13:00:39.373Z,100247.97
2023-01-13T13:02:43.357Z,100251.44
2023-01-13T13:04:49.547Z,100253.09
2023-01-13T13:07:12.673Z,100248.72
2023-01-13T13:09:31.929Z,100256.53
2023-01-13T13:11:58.100Z,100264.41
2023-01-13T13:14:01.587Z,100276.56
2023-01-13T13:16:26.175Z,100272.22
2023-01-13T13:18:28.795Z,100268.78
2023-01-13T13:21:08.945Z,100273.16
2023-01-13T13:23:39.292Z,100267.91
2023-01-13T13:26:04.802Z,100270.53
2023-01-13T13:28:17.348Z,100277.56
2023-01-13T13:30:18.744Z,100272.38
2023-01-13T13:32:54.301Z,100272.41
2023-01-13T13:35:18.792Z,100277.66
2023-01-13T13:37:59.667Z,100267.22
2023-01-13T13:40:27.491Z,100271.75
2023-01-13T13:42:56.551Z,100276.22
2023-01-13T13:45:19.284Z,100278.91
2023-01-13T13:47:20.774Z,100291.22
2023-01-13T13:49:46.698Z,100285.16
2023-01-13T13:52:03.445Z,100293.03
2023-01-13T13:54:05.223Z,100292.91
2023-01-13T13:56:16.767Z,100310.28
2023-01-13T13:58:18.309Z,100290.88
2023-01-13T14:00:29.523Z,100304.84
2023-01-13T14:02:36.910Z,100329.34
2023-01-13T14:04:39.110Z,100302.97
2023-01-13T14:06:50.918Z,100302.81
2023-01-13T14:08:52.400Z,100316.88
2023-01-13T14:10:54.001Z,100319.50
2023-01-13T14:12:55.525Z,100318.59
2023-01-13T14:14:59.868Z,100320.38
2023-01-13T14:17:01.349Z,100327.41
2023-01-13T14:19:02.990Z,100320.38
2023-01-13T14:21:26.651Z,100323.91
2023-01-13T14:23:31.517Z,100328.28
2023-01-13T14:25:47.301Z,100328.25
2023-01-13T14:27:49.197Z,100340.53
2023-01-13T14:29:56.005Z,100335.28
2023-01-13T14:31:57.658Z,100342.22
2023-01-13T14:34:02.815Z,100345.63
2023-01-13T14:36:25.485Z,100347.38
2023-01-13T14:38:26.957Z,100334.22
2023-01-13T14:40:38.131Z,100349.91
2023-01-13T14:42:39.677Z,100352.53
2023-01-13T14:44:46.848Z,100350.84
2023-01-13T14:46:48.581Z,100353.50
2023-01-13T14:48:59.310Z,100350.03
2023-01-13T14:51:04.893Z,100370.22
2023-01-13T14:53:27.222Z,100357.97
2023-01-13T14:55:38.458Z,100381.56
2023-01-13T14:57:41.731Z,100367.47
2023-01-13T14:59:51.492Z,100387.56
2023-01-13T15:01:54.768Z,100392.81
2023-01-13T15:04:17.176Z,100396.34
2023-01-13T15:06:24.328Z,100398.19
2023-01-13T15:08:29.645Z,100408.81
2023-01-13T15:10:38.389Z,100401.84
2023-01-13T15:12:40.710Z,100404.56
2023-01-13T15:14:42.216Z,100413.44
2023-01-13T15:16:43.660Z,100414.41
2023-01-13T15:18:46.689Z,100421.44
2023-01-13T15:20:48.306Z,100406.66
2023-01-13T15:22:50.842Z,100414.59
2023-01-13T15:24:52.535Z,100411.16
2023-01-13T15:26:53.968Z,100422.53
2023-01-13T15:28:58.299Z,100415.53
2023-01-13T15:31:01.683Z,100414.75
2023-01-13T15:33:03.437Z,100421.78
2023-01-13T15:35:05.369Z,100427.94
2023-01-13T15:37:09.180Z,100428.78
2023-01-13T15:39:13.021Z,100422.72
2023-01-13T15:41:14.472Z,100416.59
2023-01-13T15:43:41.819Z,100428.88
2023-01-13T15:46:02.871Z,100438.56
2023-01-13T15:48:04.728Z,100434.22
2023-01-13T15:50:06.511Z,100422.75
2023-01-13T15:52:33.996Z,100425.38
2023-01-13T15:54:35.456Z,100426.34
2023-01-13T15:56:37.187Z,100431.63
2023-01-13T15:58:39.133Z,100433.41
2023-01-13T16:00:41.673Z,100437.75
2023-01-13T16:02:44.470Z,100437.66
2023-01-13T16:04:46.041Z,100444.72
2023-01-13T16:06:47.842Z,100449.16
2023-01-13T16:08:49.380Z,100443.84
2023-01-13T16:10:50.854Z,100445.63
2023-01-13T16:12:55.722Z,100453.59
2023-01-13T16:14:57.301Z,100454.41
2023-01-13T16:16:59.002Z,100463.13
2023-01-13T16:19:00.491Z,100462.19
2023-01-13T16:21:01.963Z,100475.28
2023-01-13T16:23:03.706Z,100466.53
2023-01-13T16:25:05.506Z,100484.13
2023-01-13T16:27:15.459Z,100469.25
2023-01-13T16:29:17.024Z,100473.56
2023-01-13T16:31:23.917Z,100502.41
2023-01-13T16:33:25.398Z,100492.75
2023-01-13T16:35:28.659Z,100509.41
2023-01-13T16:37:30.196Z,100497.13
2023-01-13T16:39:31.745Z,100511.13
2023-01-13T16:41:33.582Z,100509.47
2023-01-13T16:43:35.392Z,100507.81
2023-01-13T16:45:36.972Z,100514.81
2023-01-13T16:47:39.766Z,100521.84
2023-01-13T16:49:41.281Z,100535.06
2023-01-13T16:51:42.995Z,100535.22
2023-01-13T16:53:44.566Z,100549.31
2023-01-13T16:55:46.054Z,100550.28
2023-01-13T16:57:47.933Z,100557.34
2023-01-13T16:59:49.531Z,100563.50
2023-01-13T17:01:51.938Z,100557.50
2023-01-13T17:03:54.649Z,100567.13
2023-01-13T17:05:56.129Z,100569.78
2023-01-13T17:07:57.661Z,100562.75
2023-01-13T17:09:59.184Z,100563.66
2023-01-13T17:12:00.744Z,100571.50
2023-01-13T17:14:18.108Z,100582.00
2023-01-13T17:16:24.291Z,100589.03
2023-01-13T17:18:25.803Z,100598.72
2023-01-13T17:20:27.525Z,100590.78
2023-01-13T17:22:30.756Z,100593.34
2023-01-13T17:24:35.076Z,100596.75
2023-01-13T17:26:47.094Z,100616.88
2023-01-13T17:28:48.609Z,100610.72
2023-01-13T17:30:50.059Z,100616.69
2023-01-13T17:32:51.522Z,100617.59
2023-01-13T17:34:53.942Z,100629.88
2023-01-13T17:36:55.442Z,100623.88
2023-01-13T17:38:57.035Z,100616.91
2023-01-13T17:41:05.409Z,100612.59
2023-01-13T17:43:06.878Z,100624.91
2023-01-13T17:45:11.386Z,100615.31
2023-01-13T17:47:12.881Z,100606.53
2023-01-13T17:49:16.311Z,100605.63
2023-01-13T17:51:18.778Z,100614.38
2023-01-13T17:53:20.536Z,100608.22
2023-01-13T17:55:22.059Z,100624.84
2023-01-13T17:57:23.537Z,100647.59
2023-01-13T17:59:25.091Z,100662.47
2023-01-13T18:01:30.747Z,100668.66
2023-01-13T18:03:32.285Z,100670.59
2023-01-13T18:05:35.052Z,100678.63
2023-01-13T18:07:36.511Z,100684.84
2023-01-13T18:09:38.146Z,100673.59
2023-01-13T18:11:39.620Z,100688.50
2023-01-13T18:13:43.109Z,100691.19
2023-01-13T18:15:44.604Z,100701.72
2023-01-13T18:17:47.355Z,100691.28
2023-01-13T18:20:07.432Z,100680.81
2023-01-13T18:22:31.341Z,100677.38
2023-01-13T18:24:51.766Z,100689.69
2023-01-13T18:27:11.585Z,100676.59
2023-01-13T18:29:13.062Z,100689.81
2023-01-13T18:31:14.565Z,100691.63
2023-01-13T18:33:16.178Z,100710.03
2023-01-13T18:35:17.813Z,100712.53
2023-01-13T18:37:19.377Z,100719.47
2023-01-13T18:39:20.879Z,100722.09
2023-01-13T18:41:40.644Z,100722.94
2023-01-13T18:43:42.140Z,100724.78
2023-01-13T18:45:44.853Z,100731.84
2023-01-13T18:47:46.387Z,100722.25
2023-01-13T18:49:47.977Z,100738.06
2023-01-13T18:51:49.976Z,100737.25
2023-01-13T18:53:51.506Z,100736.38
2023-01-13T18:55:52.948Z,100749.47
2023-01-13T18:57:55.512Z,100754.75
2023-01-13T18:59:57.633Z,100733.75
2023-01-13T19:01:59.287Z,100740.75
2023-01-13T19:04:02.934Z,100760.88
2023-01-13T19:06:06.105Z,100760.91
2023-01-13T19:08:07.655Z,100753.06
2023-01-13T19:10:10.202Z,100753.13
2023-01-13T19:12:14.558Z,100768.94
2023-01-13T19:14:33.980Z,100772.41
2023-01-13T19:16:35.501Z,100766.28
2023-01-13T19:18:36.979Z,100771.56
2023-01-13T19:20:38.463Z,100779.44
2023-01-13T19:22:40.024Z,100777.66
2023-01-13T19:24:44.357Z,100786.38
2023-01-13T19:26:48.924Z,100798.66
2023-01-13T19:28:50.648Z,100795.13
2023-01-13T19:30:52.667Z,100794.25
2023-01-13T19:32:54.171Z,100797.75
2023-01-13T19:34:59.175Z,100802.09
2023-01-13T19:37:00.977Z,100816.09
2023-01-13T19:39:02.514Z,100819.56
2023-01-13T19:41:11.108Z,100816.09
2023-01-13T19:43:31.271Z,100821.28
2023-01-13T19:45:35.151Z,100825.69
2023-01-13T19:47:38.538Z,100833.56
2023-01-13T19:49:40.094Z,100828.25
2023-01-13T19:51:41.560Z,100836.06
2023-01-13T19:53:43.022Z,100826.41
2023-01-13T19:55:47.681Z,100834.22
2023-01-13T19:57:49.243Z,100839.41
2023-01-13T19:59:50.774Z,100834.13
2023-01-13T20:01:52.539Z,100846.38
2023-01-13T20:03:55.508Z,100842.91
2023-01-13T20:06:07.629Z,100843.72
2023-01-13T20:08:10.456Z,100842.00
2023-01-13T20:10:13.339Z,100840.16
2023-01-13T20:12:17.660Z,100848.88
2023-01-13T20:14:20.014Z,100852.38
2023-01-13T20:16:21.513Z,100861.13
2023-01-13T20:18:22.999Z,100882.13
2023-01-13T20:20:26.845Z,100879.50
2023-01-13T20:22:28.311Z,100882.09
2023-01-13T20:24:29.830Z,100888.22
2023-01-13T20:26:32.016Z,100892.63
2023-01-13T20:28:37.026Z,100900.47
2023-01-13T20:30:40.012Z,100905.78
2023-01-13T20:32:42.714Z,100910.16
2023-01-13T20:34:44.180Z,100913.66
2023-01-13T20:36:46.980Z,100911.91
2023-01-13T20:38:48.425Z,100919.78
2023-01-13T20:40:59.084Z,100919.75
2023-01-13T20:43:00.707Z,100924.16
2023-01-13T20:45:02.157Z,100939.03
2023-01-13T20:47:04.182Z,100928.53
2023-01-13T20:49:05.892Z,100929.41
2023-01-13T20:51:07.388Z,100929.38
2023-01-13T20:53:08.913Z,100930.25
2023-01-13T20:55:11.247Z,100922.34
2023-01-13T20:57:13.288Z,100919.69
2023-01-13T20:59:15.325Z,100926.66
2023-01-13T21:01:16.875Z,100939.78
2023-01-13T21:03:18.554Z,100954.69
2023-01-13T21:05:20.031Z,100955.53
2023-01-13T21:07:21.489Z,100966.06
2023-01-13T21:09:24.272Z,100956.41
2023-01-13T21:11:46.779Z,100966.91
2023-01-13T21:14:06.647Z,100970.38
2023-01-13T21:16:10.073Z,100973.91
2023-01-13T21:18:29.971Z,100959.88
2023-01-13T21:20:33.604Z,100972.19
2023-01-13T21:22:35.939Z,100971.31
2023-01-13T21:24:37.383Z,100969.56
2023-01-13T21:26:40.152Z,100983.56
2023-01-13T21:28:41.615Z,100976.56
2023-01-13T21:30:44.483Z,100981.84
2023-01-13T21:32:46.028Z,100982.75
2023-01-13T21:34:47.570Z,100986.22
2023-01-13T21:36:49.029Z,100993.25
2023-01-13T21:38:55.066Z,100994.97
2023-01-13T21:41:02.131Z,100994.09
2023-01-13T21:43:21.906Z,101004.66
2023-01-13T21:45:42.015Z,101013.47
2023-01-13T21:47:49.685Z,101014.38
2023-01-13T21:49:51.137Z,101030.19
2023-01-13T21:51:52.586Z,101019.78
2023-01-13T21:53:55.133Z,101027.69
2023-01-13T21:55:56.601Z,101029.50
2023-01-13T21:58:07.116Z,101029.53
2023-01-13T22:00:09.063Z,101038.34
2023-01-13T22:02:28.864Z,101041.91
2023-01-13T22:04:30.385Z,101040.16
2023-01-13T22:06:31.957Z,101044.56
2023-01-13T22:08:35.668Z,101045.44
2023-01-13T22:10:37.249Z,101050.69
2023-01-13T22:12:39.394Z,101050.72
2023-01-13T22:14:41.157Z,101050.72
2023-01-13T22:16:49.053Z,101056.84
2023-01-13T22:18:50.807Z,101061.25
2023-01-13T22:20:52.301Z,101066.53
2023-01-13T22:22:53.820Z,101075.28
2023-01-13T22:24:55.442Z,101063.91
2023-01-13T22:26:56.886Z,101081.41
2023-01-13T22:28:58.592Z,101073.56
2023-01-13T22:31:07.760Z,101070.94
2023-01-13T22:33:09.583Z,101082.34
2023-01-13T22:35:12.927Z,101092.00
2023-01-13T22:37:15.188Z,101097.25
2023-01-13T22:39:16.628Z,101096.38
2023-01-13T22:41:18.527Z,101104.25
2023-01-13T22:43:19.978Z,101102.50
2023-01-13T22:45:21.436Z,101106.91
2023-01-13T22:47:22.962Z,101107.78
2023-01-13T22:49:24.477Z,101113.91
2023-01-13T22:51:27.170Z,101101.66
2023-01-13T22:53:28.622Z,101108.69
2023-01-13T22:55:30.050Z,101103.44
2023-01-13T22:57:46.470Z,101104.34
2023-01-13T22:59:48.595Z,101109.56
2023-01-13T23:01:50.115Z,101112.19
2023-01-13T23:03:51.666Z,101113.94
2023-01-13T23:05:57.244Z,101115.66
2023-01-13T23:07:58.709Z,101119.19
2023-01-13T23:10:00.166Z,101120.94
2023-01-13T23:12:01.626Z,101127.94
2023-01-13T23:14:05.447Z,101135.81
2023-01-13T23:16:10.824Z,101131.44
2023-01-13T23:18:12.319Z,101131.44
2023-01-13T23:20:13.772Z,101134.94
2023-01-13T23:22:15.609Z,101135.78
2023-01-13T23:24:17.146Z,101132.28
2023-01-13T23:26:19.472Z,101133.16
2023-01-13T23:28:22.184Z,101134.03
2023-01-13T23:30:23.656Z,101137.53
2023-01-13T23:32:25.133Z,101139.28
2023-01-13T23:34:26.658Z,101140.19
2023-01-13T23:36:28.833Z,101139.31
2023-01-13T23:38:30.469Z,101146.31
2023-01-13T23:40:33.985Z,101139.31
2023-01-13T23:42:36.008Z,101141.06
2023-01-13T23:44:37.485Z,101146.31
2023-01-13T23:46:39.221Z,101138.44
2023-01-13T23:48:40.698Z,101143.69
2023-01-13T23:50:42.244Z,101138.44
2023-01-13T23:52:44.036Z,101144.56
2023-01-13T23:54:45.526Z,101152.44
2023-01-13T23:56:49.560Z,101150.69
2023-01-13T23:58:51.521Z,101149.84
